Pagrindinis puslapis
METAR-TAF:

METAR-TAF

Oro uostai :

Le Luc, Prancūzija

platuma: 43-23N, ilguma: 006-23E, Aukštis: 80 m

Dabartinis oras

Ataskaita buvo paskelbta 34 minutes, ne 23:30 UTC
Ramus vėjas
Temperatūra 5°C
Drėgmė 75%
Slėgis 1027 hPa
Matomumas 10 km arba daugiau

METAR: LFMC 072330Z AUTO 00000KT 9999 ////// 05/01 Q1027

Laikas: 02:04 (00:04 UTC)


TAF: trūkstamas

Orai ataskaitas ir orų prognozės (METAR, TAF).

turimą stotys yra geltonos ir raudonos taškus žemėlapyje.

Perkelti pele per norėdami pamatyti stoties vardą.

Tada spustelėkite, norėdami matyti oro stebėjimo ir prognozės.

Norėdami pakeisti žemėlapį: spustelėkite ant žalios mygtukų su juodo kryžiaus žemyn,; žalią mygtuką su brūkšneliu, jei norite nutolinti; arba žalių rodyklių gretimoms žemėlapius.


METAR-TAF: